Time;durP1;ratioP1;P1;durP2;ratioP2;P2;SDS_P1;SDS_P2;PMS_P1;PMS_P2;Temp;Humidity;BMP_temperature;BMP_pressure;BME280_temperature;BME280_humidity;BME280_pressure;Samples;Min_cycle;Max_cycle;Signal;HPM_P1;HPM_P2
2021/11/08 00:00:43;;;;;;;23.67;7.95;;;;;;;13.65;62.52;101796.56;5060849;28;20056;-64
2021/11/08 00:03:13;;;;;;;23.77;7.35;;;;;;;13.53;62.74;101811.72;5048978;28;20056;-64
2021/11/08 00:05:43;;;;;;;30.40;7.97;;;;;;;13.58;63.12;101797.78;5053416;28;20055;-66
2021/11/08 00:08:13;;;;;;;26.80;7.75;;;;;;;13.98;62.30;101792.53;5036918;28;20072;-64
2021/11/08 00:10:41;;;;;;;29.77;7.43;;;;;;;13.34;62.56;101788.84;5054669;28;20065;-67
2021/11/08 00:13:09;;;;;;;26.45;8.23;;;;;;;13.29;63.17;101791.72;5053494;28;20053;-66
2021/11/08 00:20:56;;;;;;;25.67;7.80;;;;;;;13.60;62.05;101780.06;5045279;28;20057;-67
2021/11/08 00:23:23;;;;;;;28.45;7.50;;;;;;;13.71;62.27;101789.78;5044198;28;20057;-66
2021/11/08 00:25:51;;;;;;;30.25;7.45;;;;;;;13.18;62.74;101795.78;5051665;28;20053;-65
2021/11/08 00:28:19;;;;;;;26.88;7.72;;;;;;;13.24;63.03;101788.22;5052701;28;20060;-65
2021/11/08 00:30:48;;;;;;;22.88;7.30;;;;;;;13.39;62.79;101785.97;5069845;28;20052;-64
2021/11/08 00:33:17;;;;;;;23.20;6.95;;;;;;;13.35;62.70;101792.44;5048492;28;20048;-65
2021/11/08 00:35:47;;;;;;;24.65;7.10;;;;;;;13.14;63.16;101792.00;5051936;28;20052;-65
2021/11/08 00:38:15;;;;;;;24.50;7.40;;;;;;;13.18;64.46;101784.72;5051976;28;20037;-65
2021/11/08 00:40:43;;;;;;;26.27;7.53;;;;;;;13.25;63.77;101789.88;5073914;28;20052;-66
2021/11/08 00:43:12;;;;;;;28.17;6.80;;;;;;;13.16;63.67;101794.47;5073464;28;20052;-65
2021/11/08 00:45:39;;;;;;;24.30;6.78;;;;;;;13.17;64.79;101798.84;5075262;28;20052;-65
2021/11/08 00:48:07;;;;;;;23.55;6.80;;;;;;;13.19;64.25;101786.38;5066024;28;20400;-65
2021/11/08 00:50:35;;;;;;;22.42;6.85;;;;;;;13.10;63.88;101801.19;5045496;28;20040;-64
2021/11/08 00:53:04;;;;;;;25.40;7.38;;;;;;;13.01;64.40;101789.16;5056506;28;20408;-67
2021/11/08 00:55:33;;;;;;;19.77;6.20;;;;;;;12.98;64.33;101787.00;5058371;28;20056;-64
2021/11/08 00:58:02;;;;;;;22.73;6.55;;;;;;;13.23;64.79;101781.06;5056673;28;20045;-66
2021/11/08 01:00:31;;;;;;;27.20;7.63;;;;;;;13.26;63.51;101792.31;5057821;28;20052;-64
2021/11/08 01:03:03;;;;;;;29.38;7.40;;;;;;;13.07;64.72;101799.88;5073161;28;20049;-64
2021/11/08 01:05:30;;;;;;;24.70;6.72;;;;;;;13.14;63.97;101796.69;5057156;28;20044;-66
2021/11/08 01:08:00;;;;;;;24.55;6.88;;;;;;;13.09;64.29;101796.81;5052169;28;20068;-66
2021/11/08 01:10:28;;;;;;;25.08;5.95;;;;;;;13.27;63.83;101804.19;5046368;28;20067;-67
2021/11/08 01:12:55;;;;;;;25.40;6.68;;;;;;;13.34;63.19;101802.69;5036441;28;20064;-66
2021/11/08 01:15:23;;;;;;;22.35;6.57;;;;;;;13.27;63.90;101791.19;5037639;28;20484;-67
2021/11/08 01:17:51;;;;;;;22.45;5.82;;;;;;;13.44;64.19;101805.25;5037314;28;20077;-67
2021/11/08 01:20:19;;;;;;;26.77;6.13;;;;;;;13.16;63.15;101800.00;5037691;28;20069;-67
2021/11/08 01:22:48;;;;;;;27.15;6.45;;;;;;;12.67;64.31;101806.06;5037795;28;20060;-64
2021/11/08 01:25:15;;;;;;;21.65;6.47;;;;;;;12.96;65.05;101797.53;5037545;28;20053;-64
2021/11/08 01:27:44;;;;;;;24.70;6.28;;;;;;;12.95;65.54;101787.63;5035570;28;20049;-69
2021/11/08 01:30:19;;;;;;;27.23;6.50;;;;;;;13.04;63.88;101789.41;5037352;28;20053;-66
2021/11/08 01:33:02;;;;;;;27.13;6.78;;;;;;;13.12;63.72;101794.25;5037547;28;20389;-66
2021/11/08 01:35:39;;;;;;;22.77;6.38;;;;;;;13.08;64.19;101790.44;5053248;28;20513;-66
2021/11/08 01:38:10;;;;;;;25.15;6.30;;;;;;;13.11;63.60;101781.53;5037160;28;20045;-69
2021/11/08 01:40:39;;;;;;;22.63;6.25;;;;;;;13.13;64.22;101786.75;5073090;28;20052;-65
2021/11/08 01:43:09;;;;;;;19.52;6.22;;;;;;;13.28;63.81;101790.09;5075996;28;20063;-66
2021/11/08 01:45:36;;;;;;;27.85;6.82;;;;;;;13.14;64.20;101789.22;5076934;28;20480;-64
2021/11/08 01:48:04;;;;;;;24.77;5.63;;;;;;;13.14;63.38;101785.63;5058962;28;20053;-65
2021/11/08 01:50:33;;;;;;;17.63;6.13;;;;;;;13.30;63.67;101787.00;5076001;28;20052;-64
2021/11/08 01:53:01;;;;;;;22.77;6.22;;;;;;;12.98;64.00;101771.22;5077119;28;20048;-64
2021/11/08 01:55:29;;;;;;;16.85;4.88;;;;;;;13.00;64.29;101773.69;5075906;28;20052;-65
2021/11/08 01:57:57;;;;;;;24.83;5.93;;;;;;;12.87;64.12;101778.06;5074734;28;20076;-65
2021/11/08 02:00:26;;;;;;;27.23;5.85;;;;;;;13.02;64.87;101775.03;5076493;28;20083;-64
2021/11/08 02:02:54;;;;;;;22.60;6.13;;;;;;;13.00;64.44;101780.06;5058816;28;20053;-65
2021/11/08 02:05:21;;;;;;;22.38;5.88;;;;;;;13.00;65.73;101776.47;5056831;28;20068;-68
2021/11/08 02:07:49;;;;;;;26.73;5.60;;;;;;;12.86;64.41;101778.38;5071540;28;20049;-67
2021/11/08 02:10:17;;;;;;;24.00;6.00;;;;;;;12.83;64.92;101768.72;5055316;28;20057;-65
2021/11/08 02:12:45;;;;;;;28.08;6.43;;;;;;;12.90;64.73;101768.34;5056819;28;20508;-67
2021/11/08 02:15:18;;;;;;;18.33;5.50;;;;;;;13.00;64.88;101768.16;5038934;28;20073;-65
2021/11/08 02:17:48;;;;;;;23.75;6.20;;;;;;;12.87;64.87;101769.75;5051824;28;20048;-65
2021/11/08 02:20:26;;;;;;;22.30;5.68;;;;;;;12.90;65.61;101771.13;5054753;28;20056;-65
2021/11/08 02:22:57;;;;;;;22.90;5.55;;;;;;;12.99;64.14;101775.63;5055293;28;20052;-68
2021/11/08 02:25:25;;;;;;;19.73;5.43;;;;;;;12.90;64.89;101773.88;5056523;28;20049;-67
2021/11/08 02:27:53;;;;;;;21.75;6.03;;;;;;;13.04;65.28;101764.50;5056415;28;20056;-65
2021/11/08 02:30:23;;;;;;;22.55;5.93;;;;;;;12.76;64.59;101762.75;5056169;28;20056;-65
2021/11/08 02:32:53;;;;;;;24.65;5.65;;;;;;;12.86;64.98;101767.31;5055336;28;20056;-66
2021/11/08 02:35:21;;;;;;;22.33;5.78;;;;;;;12.81;65.07;101770.16;5051150;28;20614;-65
2021/11/08 02:37:50;;;;;;;26.63;5.88;;;;;;;12.91;65.39;101768.03;5054793;28;20056;-65
2021/11/08 02:40:21;;;;;;;24.35;6.38;;;;;;;13.15;64.60;101765.13;5071541;28;20056;-65
2021/11/08 02:42:52;;;;;;;20.40;6.35;;;;;;;12.84;64.41;101759.31;5076278;28;20045;-65
2021/11/08 02:45:22;;;;;;;23.60;6.43;;;;;;;12.92;64.81;101768.88;5075758;28;20048;-66
2021/11/08 02:47:50;;;;;;;25.63;6.38;;;;;;;12.72;65.11;101756.22;5076121;28;20059;-65
2021/11/08 02:50:19;;;;;;;23.63;6.13;;;;;;;12.84;64.74;101759.31;5057484;28;20046;-64
2021/11/08 02:52:49;;;;;;;21.08;5.38;;;;;;;12.80;64.69;101765.72;5036177;28;20053;-65
2021/11/08 02:55:18;;;;;;;;;;;;;;;12.87;65.92;101758.69;5036652;28;20405;-64
2021/11/08 02:57:50;;;;;;;24.30;5.70;;;;;;;12.93;64.22;101760.28;5050639;28;19928;-65
2021/11/08 03:00:20;;;;;;;23.80;5.97;;;;;;;13.02;63.89;101761.22;5035488;28;20049;-67
2021/11/08 03:02:48;;;;;;;20.70;5.93;;;;;;;12.98;65.31;101762.09;5035857;28;20053;-66
2021/11/08 03:05:18;;;;;;;20.10;5.68;;;;;;;13.16;63.88;101770.34;5036616;28;20049;-66
2021/11/08 03:07:46;;;;;;;21.77;5.45;;;;;;;12.89;64.30;101762.00;5037468;28;20425;-66
2021/11/08 03:10:18;;;;;;;23.60;5.78;;;;;;;12.76;64.45;101770.25;5035530;28;20069;-67
2021/11/08 03:12:47;;;;;;;30.08;6.47;;;;;;;12.79;64.46;101778.75;5036837;28;20068;-67
2021/11/08 03:15:27;;;;;;;24.45;6.72;;;;;;;12.94;65.67;101775.72;5036807;28;20053;-65
2021/11/08 03:18:04;;;;;;;22.58;5.60;;;;;;;12.60;65.05;101771.63;5033950;28;20497;-66
2021/11/08 03:20:31;;;;;;;26.23;6.18;;;;;;;12.73;64.93;101770.84;5035643;28;20055;-65
2021/11/08 03:23:03;;;;;;;23.95;6.55;;;;;;;12.61;63.65;101771.31;5039271;28;20056;-66
2021/11/08 03:28:03;;;;;;;25.90;5.82;;;;;;;12.59;64.70;101781.03;5049911;28;20053;-65
2021/11/08 03:30:37;;;;;;;22.58;6.00;;;;;;;12.58;65.05;101780.22;5054913;28;20053;-65
2021/11/08 03:33:09;;;;;;;21.77;6.45;;;;;;;12.38;65.60;101786.88;5034252;28;20064;-64
2021/11/08 03:35:37;;;;;;;21.70;6.78;;;;;;;12.43;65.07;101789.56;5018150;28;20060;-67
2021/11/08 03:38:07;;;;;;;22.73;6.10;;;;;;;12.63;65.34;101787.59;5042269;28;20052;-65
2021/11/08 03:40:37;;;;;;;20.40;5.72;;;;;;;12.48;64.68;101772.91;5072160;28;20175;-69
2021/11/08 03:43:07;;;;;;;22.60;5.95;;;;;;;12.67;65.51;101780.34;5075875;28;20057;-67
2021/11/08 03:45:35;;;;;;;26.23;6.88;;;;;;;12.66;63.96;101782.28;5073961;28;20045;-66
2021/11/08 03:48:08;;;;;;;21.02;5.35;;;;;;;12.76;64.54;101773.81;5073548;28;20067;-65
2021/11/08 03:50:36;;;;;;;22.13;6.05;;;;;;;13.02;64.96;101777.81;5075505;28;20053;-66
2021/11/08 03:53:03;;;;;;;18.38;5.70;;;;;;;12.63;65.84;101777.38;5063518;28;20499;-66
2021/11/08 03:55:31;;;;;;;18.02;5.40;;;;;;;12.48;65.04;101778.41;5055946;28;20057;-68
2021/11/08 03:57:59;;;;;;;18.73;5.70;;;;;;;12.43;65.73;101770.22;5054904;28;20526;-66
2021/11/08 04:00:27;;;;;;;26.00;6.25;;;;;;;12.53;65.51;101768.41;5053420;28;20052;-66
2021/11/08 04:02:57;;;;;;;23.98;6.22;;;;;;;12.65;64.36;101760.47;5053778;28;20056;-65
2021/11/08 04:05:27;;;;;;;21.63;6.57;;;;;;;12.91;64.50;101759.75;5053879;28;20060;-65
2021/11/08 04:08:04;;;;;;;27.95;6.93;;;;;;;12.52;64.06;101766.78;5053806;28;20049;-65
2021/11/08 04:10:32;;;;;;;27.45;7.38;;;;;;;11.32;66.12;101770.88;5046319;28;20070;-65
2021/11/08 04:13:05;;;;;;;25.60;6.80;;;;;;;11.55;69.84;101771.16;5035106;28;20046;-65
2021/11/08 04:15:42;;;;;;;22.42;7.93;;;;;;;11.85;68.31;101770.81;5033753;28;20489;-64
2021/11/08 04:18:21;;;;;;;19.75;6.07;;;;;;;12.01;67.88;101769.47;5034125;28;20061;-67
2021/11/08 04:20:50;;;;;;;29.10;6.88;;;;;;;11.92;65.89;101774.84;5051056;28;20048;-65
2021/11/08 04:23:20;;;;;;;22.67;6.00;;;;;;;11.59;68.28;101770.28;5039106;28;20045;-64
2021/11/08 04:25:48;;;;;;;20.38;6.40;;;;;;;12.39;67.13;101780.25;5039739;28;20057;-64
2021/11/08 04:28:15;;;;;;;24.10;6.93;;;;;;;12.26;65.91;101771.88;5038528;28;20049;-64
2021/11/08 04:30:44;;;;;;;24.27;6.60;;;;;;;11.91;64.96;101786.16;5037243;28;20045;-64
2021/11/08 04:39:16;;;;;;;19.67;6.30;;;;;;;11.96;66.68;101786.94;5044655;28;20044;-66
2021/11/08 05:30:11;;;;;;;23.15;6.38;;;;;;;12.77;62.97;101786.53;5057461;28;20128;-67
2021/11/08 05:32:42;;;;;;;25.48;5.80;;;;;;;12.39;64.36;101787.72;5055028;28;20072;-67
2021/11/08 05:35:12;;;;;;;23.13;6.68;;;;;;;12.49;63.71;101790.31;5057588;28;20045;-67
2021/11/08 05:37:45;;;;;;;18.13;6.00;;;;;;;12.37;62.88;101788.00;5057421;28;20122;-65
2021/11/08 05:40:21;;;;;;;23.85;7.25;;;;;;;12.52;65.81;101794.41;5072036;28;20441;-65
2021/11/08 05:42:48;;;;;;;23.25;6.18;;;;;;;12.83;65.51;101788.06;5077606;28;20052;-65
2021/11/08 05:45:16;;;;;;;24.23;6.45;;;;;;;12.88;63.54;101799.06;5076970;28;20086;-67
2021/11/08 05:47:44;;;;;;;21.58;5.97;;;;;;;12.71;64.28;101809.84;5077161;28;20040;-66
2021/11/08 05:50:16;;;;;;;21.95;5.47;;;;;;;12.85;63.68;101799.66;5076204;28;20052;-66
2021/11/08 05:52:44;;;;;;;26.00;6.32;;;;;;;12.61;62.85;101801.72;5075947;28;20648;-67
2021/11/08 05:55:11;;;;;;;22.08;6.03;;;;;;;12.61;64.19;101804.47;5076028;28;20048;-66
2021/11/08 06:49:48;;;;;;;17.35;6.13;;;;;;;12.74;62.64;101860.97;5051648;28;20060;-67
2021/11/08 06:52:17;;;;;;;18.58;6.40;;;;;;;12.47;64.09;101869.91;5054269;28;20053;-64
2021/11/08 06:54:47;;;;;;;22.17;7.07;;;;;;;12.53;63.90;101865.97;5052935;28;20491;-64
2021/11/08 06:57:17;;;;;;;18.90;6.05;;;;;;;13.21;63.83;101864.34;5062886;28;20619;-65
2021/11/08 06:59:46;;;;;;;18.75;6.18;;;;;;;12.90;64.23;101865.94;5057367;28;20063;-64
2021/11/08 07:02:16;;;;;;;22.23;6.85;;;;;;;12.97;66.18;101863.59;5052753;28;20064;-65
2021/11/08 07:04:43;;;;;;;31.00;10.13;;;;;;;12.86;67.86;101870.44;5054131;28;20056;-65
2021/11/08 07:07:11;;;;;;;26.45;8.50;;;;;;;12.74;70.66;101870.09;5053466;28;20143;-65
2021/11/08 07:09:39;;;;;;;19.92;6.65;;;;;;;12.63;72.14;101878.81;5053546;28;20048;-65
2021/11/08 07:12:08;;;;;;;19.65;6.45;;;;;;;12.90;71.26;101877.00;5062023;28;20060;-64
2021/11/08 07:14:35;;;;;;;27.63;7.13;;;;;;;12.81;71.66;101873.28;5064729;28;20050;-64
2021/11/08 07:17:03;;;;;;;26.02;7.20;;;;;;;12.91;71.23;101877.81;5050928;28;20045;-64
2021/11/08 07:19:30;;;;;;;24.33;7.57;;;;;;;13.00;70.13;101878.78;5054166;28;20043;-64
2021/11/08 07:21:58;;;;;;;18.92;6.43;;;;;;;12.74;69.84;101877.53;5049450;28;20246;-64
2021/11/08 07:24:26;;;;;;;29.05;8.02;;;;;;;12.59;71.29;101884.13;5072463;28;20064;-64
2021/11/08 07:26:53;;;;;;;29.33;8.43;;;;;;;12.90;70.41;101882.53;5048322;28;20036;-63
2021/11/08 07:29:22;;;;;;;29.23;8.48;;;;;;;13.06;69.17;101881.19;5052740;28;20440;-64
2021/11/08 07:31:50;;;;;;;25.42;7.30;;;;;;;13.23;68.92;101892.53;5054536;28;20056;-63
2021/11/08 07:34:17;;;;;;;25.15;6.93;;;;;;;12.97;67.58;101879.41;5045665;28;20055;-65
2021/11/08 07:36:44;;;;;;;19.92;6.57;;;;;;;13.09;70.34;101891.66;5059592;28;20075;-63
2021/11/08 07:39:12;;;;;;;25.85;7.10;;;;;;;12.97;68.27;101891.25;5055175;28;20071;-65
2021/11/08 07:41:39;;;;;;;21.95;6.68;;;;;;;12.71;68.04;101894.75;5058586;28;20048;-63
2021/11/08 07:44:08;;;;;;;22.23;6.97;;;;;;;13.34;67.48;101894.00;5050907;28;20053;-63
2021/11/08 07:46:36;;;;;;;25.35;7.10;;;;;;;13.43;66.28;101899.66;5053781;28;20049;-65
2021/11/08 07:49:04;;;;;;;27.35;6.68;;;;;;;13.29;66.06;101901.56;5052216;28;20037;-65
2021/11/08 07:51:32;;;;;;;19.48;6.57;;;;;;;13.15;66.41;101900.69;5051442;28;20500;-65
2021/11/08 07:53:59;;;;;;;27.15;7.43;;;;;;;13.04;66.51;101911.09;5052552;28;20053;-65
2021/11/08 07:56:27;;;;;;;30.88;7.40;;;;;;;13.12;65.06;101902.13;5055372;28;20040;-65
2021/11/08 07:58:55;;;;;;;23.35;7.63;;;;;;;12.96;65.57;101903.47;5054068;28;20052;-64
2021/11/08 08:01:22;;;;;;;22.90;7.75;;;;;;;13.02;64.87;101904.25;5057067;28;20052;-64
2021/11/08 08:03:50;;;;;;;29.02;7.95;;;;;;;12.53;66.47;101906.59;5064323;28;20048;-65
2021/11/08 08:06:23;;;;;;;25.00;6.80;;;;;;;12.57;66.20;101905.69;5064711;28;20045;-65
2021/11/08 08:08:57;;;;;;;22.08;6.88;;;;;;;13.00;66.03;101907.28;5050971;28;20045;-65
2021/11/08 08:11:24;;;;;;;19.83;6.55;;;;;;;13.29;64.75;101913.47;5046641;28;20052;-66
2021/11/08 08:13:51;;;;;;;23.45;7.45;;;;;;;13.12;63.80;101913.19;5058204;28;20053;-67
2021/11/08 08:16:20;;;;;;;22.70;7.70;;;;;;;12.98;64.33;101917.81;5066580;28;20052;-66
2021/11/08 08:18:49;;;;;;;29.67;7.53;;;;;;;12.90;63.88;101918.47;5067359;28;20060;-67
2021/11/08 08:21:18;;;;;;;26.83;7.23;;;;;;;13.04;63.86;101921.38;5055510;28;20037;-64
2021/11/08 08:23:59;;;;;;;24.33;8.30;;;;;;;13.12;63.40;101909.59;5056907;28;20419;-65
2021/11/08 08:26:30;;;;;;;20.88;6.78;;;;;;;13.36;63.45;101915.84;5057371;28;20048;-63
2021/11/08 08:29:03;;;;;;;22.15;6.47;;;;;;;13.23;63.61;101916.63;5073405;28;20072;-66
2021/11/08 08:31:31;;;;;;;25.83;7.05;;;;;;;13.12;63.33;101913.19;5058108;28;20041;-66
2021/11/08 08:33:59;;;;;;;23.83;6.90;;;;;;;13.34;63.10;101918.06;5058033;28;20064;-65
2021/11/08 08:36:29;;;;;;;26.55;8.07;;;;;;;13.56;62.63;101921.03;5058267;28;20044;-66
2021/11/08 08:38:57;;;;;;;25.77;6.93;;;;;;;13.42;62.44;101922.94;5056253;28;20036;-66
2021/11/08 08:41:27;;;;;;;24.85;8.18;;;;;;;13.33;62.51;101922.81;5077058;28;20411;-67
2021/11/08 08:43:55;;;;;;;21.27;7.13;;;;;;;13.62;61.01;101927.28;5059080;28;20049;-65
2021/11/08 08:46:28;;;;;;;23.17;7.38;;;;;;;13.60;61.99;101929.53;5051581;28;20053;-65
2021/11/08 08:48:56;;;;;;;22.92;7.10;;;;;;;13.63;61.72;101924.22;5055374;28;20056;-64
2021/11/08 08:51:23;;;;;;;23.55;7.10;;;;;;;13.51;61.67;101934.97;5057521;28;20053;-66
2021/11/08 08:53:51;;;;;;;27.42;6.90;;;;;;;13.61;61.84;101937.53;5057920;28;20057;-65
2021/11/08 08:56:20;;;;;;;22.60;6.63;;;;;;;13.64;61.02;101927.78;5056406;28;20060;-64
2021/11/08 08:58:52;;;;;;;25.67;7.88;;;;;;;13.94;60.37;101933.59;5040188;28;20053;-64
2021/11/08 09:01:20;;;;;;;29.70;8.18;;;;;;;13.98;58.81;101933.81;5057276;28;20053;-66
2021/11/08 09:03:47;;;;;;;35.42;8.82;;;;;;;13.82;58.37;101933.28;5062132;28;20086;-62
2021/11/08 09:06:15;;;;;;;30.38;8.15;;;;;;;13.86;58.60;101930.72;5064836;28;20048;-62
2021/11/08 09:08:42;;;;;;;27.70;8.20;;;;;;;13.96;58.25;101933.28;5054984;28;20131;-63
2021/11/08 09:11:10;;;;;;;28.13;7.82;;;;;;;13.79;59.26;101941.38;5054692;28;20044;-63
2021/11/08 09:13:37;;;;;;;22.75;8.23;;;;;;;14.02;58.76;101934.81;5056193;28;20049;-63
2021/11/08 09:16:11;;;;;;;33.40;9.67;;;;;;;13.93;58.40;101933.91;5054249;28;20049;-62
2021/11/08 09:18:41;;;;;;;37.80;9.25;;;;;;;13.99;57.98;101936.28;5054913;28;20897;-63
2021/11/08 09:21:09;;;;;;;36.67;8.65;;;;;;;14.05;58.04;101929.47;5056500;28;20056;-63
2021/11/08 09:23:38;;;;;;;28.73;8.45;;;;;;;14.07;58.25;101934.75;5057483;28;20057;-62
2021/11/08 09:26:05;;;;;;;23.50;7.57;;;;;;;14.06;57.95;101930.31;5056635;28;20041;-61
2021/11/08 09:28:33;;;;;;;27.60;8.00;;;;;;;13.97;58.21;101929.38;5056557;28;20049;-64
2021/11/08 09:31:00;;;;;;;30.25;8.38;;;;;;;13.99;57.79;101930.72;5056350;28;20045;-62
2021/11/08 09:33:28;;;;;;;36.53;8.02;;;;;;;14.10;57.77;101932.19;5056992;28;20045;-61
2021/11/08 09:36:02;;;;;;;34.95;8.20;;;;;;;13.69;58.38;101933.22;5070770;28;20037;-62
2021/11/08 09:38:30;;;;;;;30.13;9.35;;;;;;;13.80;58.60;101937.47;5055761;28;20053;-64
2021/11/08 09:40:57;;;;;;;35.58;9.25;;;;;;;13.77;58.14;101932.56;5052530;28;20040;-64
2021/11/08 09:43:28;;;;;;;38.55;9.30;;;;;;;13.75;57.97;101941.16;5058017;28;20064;-64
2021/11/08 09:45:55;;;;;;;28.73;8.85;;;;;;;13.84;58.32;101939.34;5037070;28;20472;-66
2021/11/08 09:48:24;;;;;;;31.48;8.13;;;;;;;13.74;58.51;101935.94;5068674;28;20060;-65
2021/11/08 09:50:51;;;;;;;28.23;8.13;;;;;;;13.67;58.33;101941.03;5055405;28;20044;-65
2021/11/08 09:53:19;;;;;;;29.80;6.95;;;;;;;14.01;58.17;101934.03;5053292;28;20056;-66
2021/11/08 09:55:46;;;;;;;32.25;7.78;;;;;;;13.95;58.22;101932.47;5054443;28;20059;-65
2021/11/08 09:58:14;;;;;;;24.63;8.15;;;;;;;13.72;58.21;101929.88;5052511;28;20084;-64
2021/11/08 10:00:48;;;;;;;36.38;7.30;;;;;;;13.91;56.34;101925.09;5055147;28;20059;-65
2021/11/08 10:03:21;;;;;;;30.55;6.50;;;;;;;13.21;57.48;101919.69;5056140;28;20064;-63
2021/11/08 10:05:49;;;;;;;26.00;6.70;;;;;;;13.10;60.04;101928.44;5056432;28;20052;-66
2021/11/08 10:08:21;;;;;;;32.35;8.07;;;;;;;13.56;58.30;101927.38;5053866;28;20041;-63
2021/11/08 10:10:51;;;;;;;27.67;6.18;;;;;;;11.65;59.84;101923.66;5054602;28;20069;-63
2021/11/08 10:13:23;;;;;;;22.50;7.07;;;;;;;11.24;62.23;101925.94;5054662;28;20514;-63
2021/11/08 10:15:56;;;;;;;27.52;6.15;;;;;;;11.34;64.26;101928.63;5056082;28;20291;-64
2021/11/08 10:18:27;;;;;;;26.38;5.97;;;;;;;12.65;62.85;101924.41;5053763;28;20048;-64
2021/11/08 10:21:05;;;;;;;22.65;5.63;;;;;;;13.38;57.24;101919.13;5058256;28;20049;-65
2021/11/08 10:23:33;;;;;;;23.50;5.47;;;;;;;12.61;61.33;101922.50;5049175;28;20542;-65
2021/11/08 10:26:06;;;;;;;23.25;5.90;;;;;;;12.89;57.22;101922.38;5054773;28;20049;-64
2021/11/08 10:28:34;;;;;;;28.85;6.60;;;;;;;12.53;61.70;101924.00;5068364;28;20053;-65
2021/11/08 10:31:15;;;;;;;26.33;5.00;;;;;;;12.79;60.84;101924.47;5045693;28;20068;-66
2021/11/08 10:33:46;;;;;;;29.45;5.72;;;;;;;13.03;60.20;101922.47;5046370;28;20044;-66
2021/11/08 10:36:19;;;;;;;20.73;4.85;;;;;;;14.12;57.48;101929.09;5053088;28;20144;-65
2021/11/08 10:38:50;;;;;;;26.40;5.00;;;;;;;14.33;56.88;101914.53;5041343;28;20055;-64
2021/11/08 10:41:20;;;;;;;27.92;6.20;;;;;;;14.39;52.28;101907.75;5054199;28;20044;-65
2021/11/08 10:44:03;;;;;;;31.20;5.03;;;;;;;14.35;55.27;101915.03;5053701;28;20052;-67
2021/11/08 10:46:37;;;;;;;23.33;5.32;;;;;;;13.08;53.81;101916.84;5035411;28;20412;-65
2021/11/08 10:49:12;;;;;;;25.38;4.97;;;;;;;12.74;58.74;101919.84;5034533;28;20124;-66
2021/11/08 10:51:46;;;;;;;24.42;4.78;;;;;;;13.49;57.82;101913.09;5033027;28;20056;-65
2021/11/08 10:54:23;;;;;;;33.30;5.30;;;;;;;14.41;55.47;101905.50;5034147;28;20057;-66
2021/11/08 10:56:55;;;;;;;24.80;4.95;;;;;;;14.44;53.92;101904.88;5050838;28;20049;-65
2021/11/08 10:59:36;;;;;;;20.88;4.50;;;;;;;12.78;54.60;101917.31;5065605;28;20052;-64
2021/11/08 11:02:06;;;;;;;25.45;4.60;;;;;;;12.59;56.73;101911.75;5054531;28;20064;-65
2021/11/08 11:04:49;;;;;;;26.55;4.13;;;;;;;13.11;54.27;101913.50;5039791;28;20050;-63
2021/11/08 11:07:21;;;;;;;22.95;5.22;;;;;;;12.43;54.36;101915.84;5049782;28;20061;-62
2021/11/08 11:09:49;;;;;;;20.90;4.30;;;;;;;13.20;58.20;101903.38;5047140;28;20053;-64
2021/11/08 11:12:19;;;;;;;22.02;3.72;;;;;;;13.38;54.26;101908.88;5034210;28;20057;-64
2021/11/08 11:14:55;;;;;;;21.40;3.85;;;;;;;12.69;52.34;101919.09;5042585;28;20552;-64
2021/11/08 11:17:30;;;;;;;19.48;3.65;;;;;;;12.66;54.64;101909.44;5035141;28;20075;-64
2021/11/08 11:20:13;;;;;;;18.05;3.60;;;;;;;13.12;54.77;101921.50;5053262;28;20049;-64
2021/11/08 11:23:03;;;;;;;19.98;3.50;;;;;;;13.41;55.29;101921.28;5054954;28;20044;-65
2021/11/08 11:25:32;;;;;;;21.70;4.47;;;;;;;13.51;53.42;101916.38;5053052;28;20140;-64
2021/11/08 11:28:01;;;;;;;25.27;5.30;;;;;;;13.56;54.33;101912.72;5053242;28;20051;-64
2021/11/08 11:30:34;;;;;;;21.30;5.22;;;;;;;14.21;55.61;101899.53;5052389;28;20067;-66
2021/11/08 11:33:04;;;;;;;30.13;6.13;;;;;;;13.29;52.46;101905.16;5055241;28;20059;-63
2021/11/08 11:35:45;;;;;;;27.63;6.60;;;;;;;13.20;53.30;101898.66;5054987;28;20055;-65
2021/11/08 11:38:20;;;;;;;28.52;7.03;;;;;;;13.35;56.85;101897.59;5053420;28;20053;-64
2021/11/08 11:41:02;;;;;;;24.73;6.75;;;;;;;14.18;52.90;101889.06;5074577;28;20052;-63
2021/11/08 11:43:48;;;;;;;21.10;7.22;;;;;;;14.01;52.49;101889.69;5054552;28;20048;-63
2021/11/08 11:46:22;;;;;;;21.13;4.38;;;;;;;14.15;49.96;101876.66;5046611;28;20049;-65
2021/11/08 11:48:53;;;;;;;19.92;4.75;;;;;;;12.75;53.62;101880.00;5052529;28;20361;-66
2021/11/08 11:51:23;;;;;;;21.95;4.68;;;;;;;13.94;54.60;101885.69;5059054;28;20084;-63
2021/11/08 11:53:52;;;;;;;18.38;4.78;;;;;;;13.44;51.04;101882.75;5054280;28;20052;-66
2021/11/08 11:56:21;;;;;;;19.67;4.97;;;;;;;13.20;52.21;101887.59;5053485;28;20044;-66
2021/11/08 11:58:50;;;;;;;20.63;4.10;;;;;;;13.34;54.72;101879.34;5054772;28;20053;-68
2021/11/08 12:01:20;;;;;;;23.00;4.93;;;;;;;13.10;53.23;101873.13;5057110;28;20460;-64
2021/11/08 12:03:48;;;;;;;22.40;4.30;;;;;;;13.65;53.25;101876.84;5054231;28;20052;-66
2021/11/08 12:06:20;;;;;;;18.05;3.75;;;;;;;13.44;50.97;101871.66;5053265;28;20049;-64
2021/11/08 12:08:52;;;;;;;23.13;4.40;;;;;;;13.72;51.62;101880.03;5054867;28;20064;-66
2021/11/08 12:11:34;;;;;;;23.27;4.88;;;;;;;13.22;49.98;101867.94;5052661;28;20045;-65
2021/11/08 12:14:03;;;;;;;24.02;4.65;;;;;;;13.03;53.34;101867.16;5053115;28;20041;-67
2021/11/08 12:16:33;;;;;;;22.27;5.57;;;;;;;13.52;53.04;101864.63;5043257;28;20051;-67
2021/11/08 12:19:03;;;;;;;17.73;3.92;;;;;;;14.02;51.24;101854.47;5053443;28;20057;-66
2021/11/08 12:21:36;;;;;;;20.30;3.22;;;;;;;14.21;49.11;101852.44;5052600;28;20543;-66
2021/11/08 12:24:25;;;;;;;17.70;4.47;;;;;;;13.85;49.98;101860.66;5052633;28;20053;-64
2021/11/08 12:27:05;;;;;;;21.48;5.20;;;;;;;14.59;50.65;101849.06;5053171;28;20151;-64
2021/11/08 12:29:34;;;;;;;15.85;3.65;;;;;;;14.87;47.98;101852.56;5054472;28;20057;-64
2021/11/08 12:32:11;;;;;;;20.47;3.70;;;;;;;14.49;50.46;101845.72;5051546;28;20057;-66
2021/11/08 12:34:46;;;;;;;19.30;3.80;;;;;;;13.77;50.14;101852.25;5054429;28;20064;-65
2021/11/08 12:37:15;;;;;;;15.48;4.00;;;;;;;13.78;49.71;101849.16;5034491;28;20049;-64
2021/11/08 12:39:45;;;;;;;16.98;3.67;;;;;;;13.93;48.60;101839.72;5055811;28;20079;-63
2021/11/08 12:42:15;;;;;;;17.55;3.60;;;;;;;14.24;50.75;101835.19;5030810;28;20400;-67
2021/11/08 12:44:49;;;;;;;14.63;3.63;;;;;;;14.66;48.14;101834.78;5058274;28;20052;-66
2021/11/08 12:47:16;;;;;;;19.23;3.25;;;;;;;14.59;49.08;101832.44;5073018;28;20076;-67
2021/11/08 12:49:53;;;;;;;20.58;3.50;;;;;;;14.52;47.04;101825.69;5076646;28;20048;-64
2021/11/08 12:52:25;;;;;;;17.33;3.58;;;;;;;13.33;50.60;101831.50;5071502;28;20067;-65
2021/11/08 12:55:12;;;;;;;16.13;4.15;;;;;;;14.38;51.16;101817.41;5074218;28;20057;-64
2021/11/08 12:57:56;;;;;;;21.20;4.38;;;;;;;14.54;49.47;101820.63;5036825;28;20068;-63
2021/11/08 13:00:28;;;;;;;20.60;4.00;;;;;;;14.71;49.00;101817.19;5052580;28;20061;-64
2021/11/08 13:03:00;;;;;;;18.50;4.43;;;;;;;15.07;46.70;101816.00;5051628;28;20056;-62
2021/11/08 13:05:41;;;;;;;20.85;4.78;;;;;;;14.24;49.66;101810.25;5070950;28;20048;-62
2021/11/08 13:08:21;;;;;;;19.00;3.35;;;;;;;14.38;48.63;101806.31;5037818;28;20524;-64
2021/11/08 13:11:10;;;;;;;17.85;4.20;;;;;;;14.34;49.93;101812.81;5072536;28;20052;-64
2021/11/08 13:13:43;;;;;;;18.20;3.97;;;;;;;13.59;51.22;101823.53;5057821;28;20052;-64
2021/11/08 13:16:11;;;;;;;19.30;4.22;;;;;;;14.42;49.35;101800.97;5055024;28;20059;-63
2021/11/08 13:18:43;;;;;;;21.08;4.32;;;;;;;13.68;50.85;101802.31;5066397;28;20082;-63
2021/11/08 13:21:20;;;;;;;17.30;5.35;;;;;;;13.14;51.69;101803.06;5070753;28;20053;-64
2021/11/08 13:23:52;;;;;;;20.23;4.82;;;;;;;13.36;52.37;101797.66;5058141;28;20053;-63
2021/11/08 13:26:20;;;;;;;21.85;4.07;;;;;;;13.79;51.87;101800.16;5039051;28;20492;-64